Latest Weather Observations for Gold Coast Seaway

IDQ60801

Issued at 6:02 pm EST Friday 26 August 2016 (issued every 30 minutes, with the page automatically refreshed every 10 minutes)

About weather observations | Map of weather stations | Latest weather observations for QLD | Other Formats
Station Details ID: 040764 Name: GOLD COAST SEAWAY Lat: -27.94 Lon: 153.43 Height: 2.98 m
Data from the previous 72 hours. | See also: Recent months at Gold Coast Seaway
Date/Time
EST
Temp
°C
App
Temp
°C
Dew
Point
°C
Rel
Hum
%
Delta-T
°C
Wind Press
QNH
hPa
Press
MSL
hPa
Rain since
9am
mm
Dir  Spd
km/h
Gust
km/h
Spd
kts
Gust
kts
26/06:00pm 15.8 11.7 8.5 62 3.7 S 20 28 11 15 1015.5 1015.5 0.0
26/05:30pm 16.6 12.6 8.3 58 4.2 SSE 19 24 10 13 1015.1 1015.1 0.0
26/05:00pm 17.4 14.5 8.0 54 4.8 SE 13 19 7 10 1014.9 1014.9 0.0
26/04:30pm 18.4 15.0 7.8 50 5.4 ESE 15 20 8 11 1014.6 1014.6 0.0
26/04:00pm 19.2 15.4 7.6 47 5.9 ESE 17 19 9 10 1014.4 1014.4 0.0
26/03:30pm 19.3 15.6 8.0 48 5.8 ESE 17 20 9 11 1014.3 1014.3 0.0
26/03:00pm 19.5 16.2 7.9 47 6.0 ESE 15 19 8 10 1014.3 1014.3 0.0
26/02:30pm 18.8 15.2 6.9 46 6.0 ESE 15 19 8 10 1014.4 1014.4 0.0
26/02:00pm 19.6 15.8 7.7 46 6.1 E 17 19 9 10 1014.5 1014.5 0.0
26/01:30pm 19.6 15.3 7.0 44 6.4 E 19 22 10 12 1014.5 1014.5 0.0
26/01:00pm 19.4 15.1 6.8 44 6.3 E 19 22 10 12 1014.6 1014.6 0.0
26/12:30pm 19.8 15.9 7.2 44 6.4 ESE 17 22 9 12 1015.0 1015.0 0.0
26/12:00pm 20.0 16.8 8.4 47 6.0 ESE 15 20 8 11 1015.5 1015.5 0.0
26/11:30am 19.1 15.6 7.2 46 6.0 ESE 15 19 8 10 1015.8 1015.8 0.0
26/11:00am 18.8 15.5 6.6 45 6.1 E 13 15 7 8 1016.1 1016.1 0.0
26/10:30am 18.9 16.2 5.7 42 6.5 ENE 9 11 5 6 1016.5 1016.5 0.0
26/10:00am 18.2 16.6 4.7 41 6.4 NW 2 7 1 4 1016.8 1016.8 0.0
26/09:30am 17.3 14.5 5.3 45 5.8 NW 9 11 5 6 1017.1 1017.1 0.0
26/09:00am 16.3 13.1 5.0 47 5.4 WNW 11 13 6 7 1017.2 1017.2 0.2
26/08:30am 14.9 11.5 5.7 54 4.4 WNW 13 15 7 8 1017.6 1017.6 0.2
26/08:00am 13.5 9.7 5.7 59 3.7 WNW 15 17 8 9 1017.4 1017.4 0.2
26/07:30am 12.5 8.7 5.9 64 3.1 WNW 15 17 8 9 1017.1 1017.1 0.2
26/07:00am 11.6 8.1 5.3 65 2.9 W 13 15 7 8 1016.8 1016.8 0.2
26/06:30am 10.8 7.2 6.6 75 2.0 W 15 17 8 9 1016.5 1016.5 0.2
26/06:00am 10.6 7.3 6.6 76 1.9 WNW 13 15 7 8 1016.1 1016.1 0.2
26/05:30am 10.2 7.2 6.0 75 1.9 W 11 15 6 8 1015.9 1015.9 0.2
26/05:00am 10.7 7.7 6.1 73 2.1 W 11 13 6 7 1015.3 1015.3 0.2
26/04:30am 11.8 8.4 5.9 67 2.8 W 13 15 7 8 1015.0 1015.0 0.2
26/04:00am 10.4 8.5 6.9 79 1.7 WNW 6 11 3 6 1014.8 1014.8 0.2
26/03:30am 8.7 6.9 5.4 80 1.5 WNW 4 9 2 5 1014.5 1014.5 0.2
26/03:00am 9.4 7.0 5.4 76 1.8 W 7 11 4 6 1014.4 1014.4 0.2
26/02:30am 9.8 7.0 5.2 73 2.1 NW 9 11 5 6 1014.5 1014.5 0.2
26/02:00am 11.3 8.3 6.0 70 2.5 WNW 11 13 6 7 1014.4 1014.4 0.2
26/01:30am 10.8 8.0 5.1 68 2.6 NW 9 11 5 6 1014.5 1014.5 0.2
26/01:00am 12.2 8.6 5.1 62 3.3 WNW 13 15 7 8 1014.4 1014.4 0.2
26/12:30am 13.3 9.3 5.0 57 3.8 W 15 19 8 10 1014.6 1014.6 0.2
26/12:00am 13.7 9.6 4.6 54 4.2 WSW 15 20 8 11 1014.7 1014.7 0.2
 
Date/Time
EST
Temp
°C
App
Temp
°C
Dew
Point
°C
Rel
Hum
%
Delta-T
°C
Wind Press
QNH
hPa
Press
MSL
hPa
Rain since
9am
mm
Dir  Spd
km/h
Gust
km/h
Spd
kts
Gust
kts
25/11:30pm 13.8 10.1 4.7 54 4.2 WSW 13 19 7 10 1015.0 1015.0 0.2
25/11:00pm 14.1 10.4 4.7 53 4.4 WSW 13 17 7 9 1015.0 1015.0 0.2
25/10:30pm 14.3 10.6 4.6 52 4.5 WSW 13 19 7 10 1015.0 1015.0 0.2
25/10:00pm 14.8 9.9 4.2 49 4.9 W 19 26 10 14 1014.9 1014.9 0.2
25/09:30pm 15.2 9.7 4.0 47 5.2 WSW 22 28 12 15 1014.8 1014.8 0.2
25/09:00pm 15.1 10.1 4.8 50 4.8 WSW 20 30 11 16 1014.7 1014.7 0.2
25/08:30pm 15.1 11.1 5.0 51 4.7 WSW 15 22 8 12 1014.5 1014.5 0.2
25/08:00pm 15.3 10.9 5.0 50 4.8 W 17 22 9 12 1014.3 1014.3 0.2
25/07:30pm 15.7 11.8 5.3 50 4.9 W 15 19 8 10 1014.1 1014.1 0.2
25/07:00pm 16.4 12.1 5.1 47 5.4 W 17 24 9 13 1013.7 1013.7 0.2
25/06:30pm 16.8 12.8 4.8 45 5.7 W 15 17 8 9 1013.0 1013.0 0.2
25/06:00pm 17.5 13.4 4.5 42 6.2 WSW 15 24 8 13 1012.4 1012.4 0.2
25/05:30pm 18.1 13.5 3.9 39 6.7 W 17 24 9 13 1011.8 1011.8 0.2
25/05:00pm 19.0 14.3 3.2 35 7.4 W 17 26 9 14 1011.4 1011.4 0.2
25/04:30pm 19.8 14.4 4.7 37 7.3 W 22 28 12 15 1010.9 1010.9 0.2
25/04:00pm 20.4 16.1 5.2 37 7.5 W 17 28 9 15 1010.5 1010.5 0.2
25/03:30pm 20.8 16.6 5.6 37 7.5 WSW 17 26 9 14 1010.0 1010.0 0.2
25/03:00pm 20.6 15.9 5.0 36 7.6 W 19 30 10 16 1009.7 1009.7 0.2
25/02:30pm 20.7 15.9 5.5 37 7.5 WNW 20 28 11 15 1009.6 1009.6 0.2
25/02:00pm 21.0 16.8 5.8 37 7.6 W 17 26 9 14 1009.4 1009.4 0.2
25/01:30pm 20.3 15.3 4.8 36 7.5 W 20 32 11 17 1009.2 1009.2 0.2
25/01:00pm 20.2 15.1 6.2 40 7.0 W 22 32 12 17 1009.0 1009.0 0.2
25/12:30pm 20.2 16.2 6.5 41 6.9 WSW 17 28 9 15 1009.5 1009.5 0.2
25/12:00pm 19.3 13.7 5.4 40 6.8 W 24 35 13 19 1009.6 1009.6 0.2
25/11:30am 19.1 14.6 5.9 42 6.5 WSW 19 33 10 18 1009.9 1009.9 0.2
25/11:00am 18.9 14.8 6.1 43 6.3 W 17 26 9 14 1010.0 1010.0 0.2
25/10:30am 18.2 14.8 6.1 45 6.0 W 13 19 7 10 1010.2 1010.2 0.2
25/10:00am 17.8 13.3 6.3 47 5.7 W 19 26 10 14 1010.9 1010.9 0.0
25/09:30am 17.1 11.8 6.6 50 5.2 WSW 24 35 13 19 1010.4 1010.4 0.0
25/09:00am 17.0 12.3 6.2 49 5.3 W 20 30 11 16 1010.4 1010.4 28.0
25/08:49am 16.8 12.2 6.6 51 5.0 WNW 20 32 11 17 1010.4 1010.4 28.0
25/08:30am 16.5 14.5 7.2 54 4.6 WNW 7 13 4 7 1010.4 1010.4 28.0
25/08:00am 15.5 9.2 7.5 59 4.0 NW 30 37 16 20 1010.0 1010.0 28.0
25/07:30am 15.1 10.1 7.9 62 3.6 WNW 24 30 13 16 1009.9 1009.9 28.0
25/07:00am 15.3 11.7 8.3 63 3.5 W 17 26 9 14 1010.0 1010.0 28.0
25/06:30am 14.6 13.1 9.2 70 2.8 WSW 7 17 4 9 1009.1 1009.1 28.0
25/06:00am 15.2 12.6 9.3 68 3.0 WSW 13 26 7 14 1008.8 1008.8 28.0
25/05:30am 15.7 12.1 10.0 69 3.0 W 19 32 10 17 1008.7 1008.7 28.0
25/05:00am 16.3 11.4 11.2 72 2.7 WNW 28 33 15 18 1008.5 1008.5 28.0
25/04:30am 16.6 13.5 13.5 82 1.7 WNW 22 26 12 14 1008.0 1008.0 28.0
25/04:00am 16.6 14.0 13.9 84 1.5 WNW 20 26 11 14 1006.7 1006.7 28.0
25/03:30am 17.0 12.4 14.5 85 1.4 NW 32 37 17 20 1007.9 1007.9 28.0
25/03:00am 17.6 13.1 14.9 84 1.6 NW 32 39 17 21 1007.7 1007.7 28.0
25/02:30am 17.5 14.0 15.5 88 1.2 WNW 28 33 15 18 1005.9 1005.9 28.0
25/02:00am 17.3 15.9 17.1 99 0.1 NW 20 30 11 16 1005.1 1005.1 28.0
25/01:30am 17.4 14.2 17.2 99 0.1 NW 30 35 16 19 1006.8 1006.8 28.0
25/01:00am 17.3 15.6 17.3 100 0.0 NNW 22 32 12 17 1007.0 1007.0 28.0
25/12:30am 17.0 15.8 17.0 100 0.0 NW 19 26 10 14 1006.4 1006.4 28.0
25/12:00am 16.8 14.6 16.8 100 0.0 NW 24 30 13 16 1007.5 1007.5 28.0
 
Date/Time
EST
Temp
°C
App
Temp
°C
Dew
Point
°C
Rel
Hum
%
Delta-T
°C
Wind Press
QNH
hPa
Press
MSL
hPa
Rain since
9am
mm
Dir  Spd
km/h
Gust
km/h
Spd
kts
Gust
kts
24/11:30pm 16.4 14.9 16.4 100 0.0 NNW 19 28 10 15 1006.7 1006.7 28.0
24/11:00pm 16.2 15.8 16.2 100 0.0 NNW 13 19 7 10 1005.6 1005.6 28.0
24/10:30pm 16.4 16.1 16.4 100 0.0 NW 13 17 7 9 1006.7 1006.7 28.0
24/10:00pm 16.7 16.5 16.7 100 0.0 NW 13 19 7 10 1007.6 1007.6 28.0
24/09:30pm 16.6 16.4 16.6 100 0.0 NNW 13 19 7 10 1007.4 1007.4 28.0
24/09:00pm 16.5 15.5 16.5 100 0.0 NW 17 22 9 12 1007.6 1007.6 28.0
24/08:30pm 16.4 14.8 16.4 100 0.0 WNW 20 24 11 13 1007.9 1007.9 28.0
24/08:00pm 16.1 16.0 16.1 100 0.0 W 11 13 6 7 1006.6 1006.6 28.0
24/07:30pm 16.4 15.3 16.4 100 0.0 NW 17 26 9 14 1007.2 1007.2 28.0
24/07:00pm 16.7 16.5 16.7 100 0.0 NNW 13 17 7 9 1007.6 1007.6 28.0
24/06:30pm 16.3 15.6 16.3 100 0.0 NNW 15 19 8 10 1007.1 1007.1 28.0
24/06:00pm 16.5 16.2 16.5 100 0.0 NNW 13 15 7 8 1007.0 1007.0 28.0
24/05:30pm 16.6 17.7 16.6 100 0.0 NW 6 11 3 6 1007.4 1007.4 27.8
24/05:00pm 16.6 17.7 16.6 100 0.0 NW 6 11 3 6 1007.4 1007.4 27.8
24/04:30pm 16.8 17.8 16.8 100 0.0 NW 7 9 4 5 1007.3 1007.3 27.8
24/04:00pm 16.6 17.6 16.4 99 0.1 WSW 6 9 3 5 1007.3 1007.3 27.8
24/03:30pm 16.6 18.8 16.6 100 0.0 CALM 0 0 0 0 1007.1 1007.1 27.4
24/03:00pm 16.5 17.9 16.5 100 0.0 SSW 4 9 2 5 1006.6 1006.6 27.4
24/02:30pm 16.4 16.5 16.4 100 0.0 S 11 15 6 8 1006.3 1006.3 27.2
24/02:00pm 15.9 15.0 15.9 100 0.0 S 15 24 8 13 1006.4 1006.4 26.6
24/01:30pm 15.8 13.5 15.8 100 0.0 S 22 35 12 19 1006.1 1006.1 23.2
24/01:00pm 15.9 13.3 15.9 100 0.0 S 24 35 13 19 1005.9 1005.9 22.0
24/12:30pm 16.0 13.1 16.0 100 0.0 S 26 35 14 19 1006.4 1006.4 20.0
24/12:00pm 16.1 14.5 16.1 100 0.0 SSW 19 30 10 16 1007.0 1007.0 17.0
24/11:30am 16.4 12.5 16.4 100 0.0 S 32 41 17 22 1006.9 1006.9 13.4
24/11:00am 16.4 13.2 16.4 100 0.0 SSE 28 35 15 19 1007.6 1007.6 11.8
24/10:30am 15.9 12.5 15.9 100 0.0 S 28 35 15 19 1008.1 1008.1 8.6
24/10:00am 17.5 13.5 17.5 100 0.0 SSE 35 43 19 23 1007.9 1007.9 0.2
24/09:30am 17.9 15.3 17.9 100 0.0 SSE 28 32 15 17 1008.4 1008.4 0.2
24/09:00am 18.1 17.3 18.1 100 0.0 SSE 19 24 10 13 1008.5 1008.5 11.6
24/08:30am 18.3 18.0 18.3 100 0.0 SSE 17 19 9 10 1008.8 1008.8 11.4
24/08:00am 18.3 17.6 18.3 100 0.0 SSE 19 20 10 11 1008.9 1008.9 10.6
24/07:30am 18.3 17.6 18.3 100 0.0 SSE 19 24 10 13 1008.7 1008.7 10.4
24/07:00am 19.4 21.1 19.4 100 0.0 SSE 9 11 5 6 1008.5 1008.5 8.6
24/06:30am 19.2 21.2 19.2 100 0.0 S 7 9 4 5 1008.5 1008.5 7.6
24/06:00am 19.1 22.0 19.1 100 0.0 SW 2 7 1 4 1008.5 1008.5 7.6
24/05:30am 19.0 20.9 19.0 100 0.0 WNW 7 9 4 5 1008.3 1008.3 7.4
24/05:00am 18.9 20.4 18.9 100 0.0 W 9 11 5 6 1008.3 1008.3 7.4
24/04:30am 19.1 20.3 19.1 100 0.0 W 11 13 6 7 1008.3 1008.3 7.4
24/04:00am 18.9 19.3 18.9 100 0.0 NNW 15 22 8 12 1008.3 1008.3 7.0
24/03:30am 18.9 18.5 18.9 100 0.0 NNW 19 28 10 15 1008.6 1008.6 6.8
24/03:00am 19.0 19.0 19.0 100 0.0 NNW 17 28 9 15 1008.9 1008.9 6.8
24/02:30am 19.2 17.2 19.2 100 0.0 N 28 37 15 20 1009.2 1009.2 6.2
24/02:00am 19.5 20.1 19.5 100 0.0 NNW 15 28 8 15 1009.6 1009.6 3.4
24/01:30am 19.6 20.3 19.6 100 0.0 NNW 15 19 8 10 1009.9 1009.9 3.4
24/01:00am 20.0 20.5 20.0 100 0.0 NNW 17 24 9 13 1010.4 1010.4 3.2
24/12:30am 20.0 19.9 20.0 100 0.0 NNW 20 30 11 16 1010.6 1010.6 3.0
24/12:00am 20.3 20.4 20.3 100 0.0 N 20 26 11 14 1010.9 1010.9 2.4
 
Date/Time
EST
Temp
°C
App
Temp
°C
Dew
Point
°C
Rel
Hum
%
Delta-T
°C
Wind Press
QNH
hPa
Press
MSL
hPa
Rain since
9am
mm
Dir  Spd
km/h
Gust
km/h
Spd
kts
Gust
kts
23/11:30pm 20.6 19.7 20.6 100 0.0 N 26 30 14 16 1011.4 1011.4 1.2
23/11:00pm 20.4 21.5 20.4 100 0.0 NNW 15 33 8 18 1011.6 1011.6 1.2
23/10:30pm 19.5 21.6 19.3 99 0.1 S 7 11 4 6 1012.1 1012.1 0.8
23/10:00pm 19.5 21.5 18.7 95 0.5 SSW 6 7 3 4 1012.6 1012.6 0.0
23/09:30pm 19.5 21.1 18.3 93 0.7 S 7 7 4 4 1012.7 1012.7 0.0
23/09:00pm 19.6 21.2 18.3 92 0.8 SSW 7 9 4 5 1013.1 1013.1 0.0
23/08:30pm 19.9 21.5 18.2 90 1.1 SW 7 7 4 4 1013.5 1013.5 0.0
23/08:00pm 20.3 21.0 17.9 86 1.5 WSW 11 15 6 8 1013.5 1013.5 0.0
23/07:30pm 20.8 22.1 19.3 91 0.9 NW 11 13 6 7 1013.4 1013.4 0.0
23/07:00pm 20.8 22.2 18.7 88 1.3 NNW 9 13 5 7 1013.1 1013.1 0.0
23/06:30pm 20.8 22.0 19.1 90 1.1 NNW 11 15 6 8 1012.9 1012.9 0.0

Other Formats:

Comma delimited format used in spreadsheet applications
http://www.bom.gov.au/fwo/IDQ60801/IDQ60801.94580.axf

JavaScript Object Notation format (JSON) in row-major order
http://www.bom.gov.au/fwo/IDQ60801/IDQ60801.94580.json